Terminal Aerodrome Forecast
Issued by NWS

Home | Current Version | Previous Version | Graphics & Text | Print | Product List | Glossary On
Versions: 1 2 3 4 5 6 7 8 9 10 11 12 13 14
000
FTUS43 KICT 202338
TAFRSL
TAF
KRSL 202338Z 2100/2124 VRB03KT P6SM SCT020 OVC028
     FM210400 23007KT 6SM BR BKN045
     FM210700 24007KT P6SM SKC
     FM211400 25004KT 6SM BR SKC
     FM211700 18005KT P6SM SKC
     FM212000 12006KT P6SM SKC=

USA.gov is the U.S. government's official web portal to all federal, state and local government web resources and services.